createdAt,value
2022-09-07T00:00:57.716Z,23.46
2022-09-07T00:03:24.457Z,23.46
2022-09-07T00:05:52.075Z,23.46
2022-09-07T00:08:22.295Z,23.45
2022-09-07T00:10:57.140Z,23.45
2022-09-07T00:13:25.681Z,23.46
2022-09-07T00:15:52.556Z,23.45
2022-09-07T00:18:19.387Z,23.45
2022-09-07T00:20:46.035Z,23.45
2022-09-07T00:23:12.629Z,23.45
2022-09-07T00:25:40.384Z,23.44
2022-09-07T00:28:08.136Z,23.44
2022-09-07T00:30:35.146Z,23.44
2022-09-07T00:33:01.522Z,23.44
2022-09-07T00:35:27.879Z,23.43
2022-09-07T00:37:54.399Z,23.42
2022-09-07T00:40:20.743Z,23.43
2022-09-07T00:42:47.092Z,23.42
2022-09-07T00:45:21.023Z,23.42
2022-09-07T00:48:13.581Z,23.42
2022-09-07T00:50:46.411Z,23.42
2022-09-07T00:53:19.828Z,23.42
2022-09-07T00:55:49.279Z,23.41
2022-09-07T00:58:17.831Z,23.41
2022-09-07T01:00:46.738Z,23.42
2022-09-07T01:03:16.179Z,23.41
2022-09-07T01:06:10.363Z,23.40
2022-09-07T01:08:37.057Z,23.40
2022-09-07T01:11:04.497Z,23.39
2022-09-07T01:13:31.063Z,23.39
2022-09-07T01:16:16.548Z,23.40
2022-09-07T01:19:00.053Z,23.39
2022-09-07T01:21:44.829Z,23.40
2022-09-07T01:24:31.439Z,23.39
2022-09-07T01:27:31.260Z,23.39
2022-09-07T01:30:06.603Z,23.39
2022-09-07T01:32:49.075Z,23.39
2022-09-07T01:35:26.269Z,23.39
2022-09-07T01:38:04.738Z,23.38
2022-09-07T01:45:52.615Z,23.38
2022-09-07T01:48:20.511Z,23.38
2022-09-07T01:50:53.158Z,23.35
2022-09-07T01:53:28.782Z,23.36
2022-09-07T01:56:01.437Z,23.37
2022-09-07T01:58:43.200Z,23.35
2022-09-07T02:01:23.666Z,23.35
2022-09-07T02:04:00.345Z,23.35
2022-09-07T02:06:36.399Z,23.35
2022-09-07T02:09:09.890Z,23.35
2022-09-07T02:11:40.448Z,23.34
2022-09-07T02:14:11.501Z,23.34
2022-09-07T02:16:48.472Z,23.33
2022-09-07T02:19:17.076Z,23.34
2022-09-07T02:21:52.488Z,23.33
2022-09-07T02:24:25.593Z,23.33
2022-09-07T02:26:54.389Z,23.33
2022-09-07T02:29:21.047Z,23.34
2022-09-07T02:31:48.110Z,23.33
2022-09-07T02:34:14.640Z,23.33
2022-09-07T02:36:46.775Z,23.33
2022-09-07T02:39:13.158Z,23.33
2022-09-07T02:41:44.175Z,23.30
2022-09-07T02:44:15.971Z,23.31
2022-09-07T02:47:17.808Z,23.32
2022-09-07T02:49:51.315Z,23.32
2022-09-07T02:52:50.564Z,23.32
2022-09-07T02:56:00.830Z,23.31
2022-09-07T02:58:53.306Z,23.30
2022-09-07T03:01:27.546Z,23.31
2022-09-07T03:04:06.379Z,23.30
2022-09-07T03:06:39.165Z,23.30
2022-09-07T03:09:11.510Z,23.31
2022-09-07T03:11:37.885Z,23.30
2022-09-07T03:14:19.077Z,23.29
2022-09-07T03:16:48.040Z,23.29
2022-09-07T03:19:14.557Z,23.30
2022-09-07T03:21:40.933Z,23.29
2022-09-07T03:24:07.618Z,23.29
2022-09-07T03:26:38.832Z,23.29
2022-09-07T03:29:05.712Z,23.28
2022-09-07T03:31:33.612Z,23.29
2022-09-07T03:33:59.963Z,23.28
2022-09-07T03:36:26.356Z,23.28
2022-09-07T03:38:52.724Z,23.27
2022-09-07T03:41:19.064Z,23.27
2022-09-07T03:43:45.458Z,23.27
2022-09-07T03:46:11.891Z,23.27
2022-09-07T03:48:39.427Z,23.26
2022-09-07T03:51:08.258Z,23.26
2022-09-07T03:53:37.434Z,23.27
2022-09-07T03:56:07.047Z,23.26
2022-09-07T03:58:34.595Z,23.27
2022-09-07T04:01:18.028Z,23.26
2022-09-07T04:03:45.568Z,23.26
2022-09-07T04:06:12.973Z,23.24
2022-09-07T04:08:40.421Z,23.27
2022-09-07T04:11:08.449Z,23.26
2022-09-07T04:13:36.069Z,23.24
2022-09-07T04:16:19.304Z,23.25
2022-09-07T04:18:46.214Z,23.25
2022-09-07T04:21:13.191Z,23.25
2022-09-07T04:23:41.076Z,23.23
2022-09-07T04:26:13.139Z,23.24
2022-09-07T04:28:39.479Z,23.24
2022-09-07T04:31:06.234Z,23.24
2022-09-07T04:33:32.906Z,23.24
2022-09-07T04:36:00.975Z,23.23
2022-09-07T04:38:27.911Z,23.23
2022-09-07T04:41:02.332Z,23.22
2022-09-07T04:43:29.818Z,23.22
2022-09-07T04:45:56.459Z,23.21
2022-09-07T04:48:22.889Z,23.21
2022-09-07T04:50:49.274Z,23.21
2022-09-07T04:53:15.639Z,23.21
2022-09-07T04:55:42.028Z,23.22
2022-09-07T04:58:08.370Z,23.22
2022-09-07T05:00:35.351Z,23.21
2022-09-07T05:03:01.695Z,23.21
2022-09-07T05:05:28.062Z,23.20
2022-09-07T05:07:54.403Z,23.21
2022-09-07T05:10:20.753Z,23.20
2022-09-07T05:12:47.440Z,23.21
2022-09-07T05:15:13.923Z,23.20
2022-09-07T05:17:40.471Z,23.20
2022-09-07T05:20:07.361Z,23.20
2022-09-07T05:22:35.513Z,23.18
2022-09-07T05:25:01.868Z,23.18
2022-09-07T05:27:28.211Z,23.20
2022-09-07T05:30:03.448Z,23.18
2022-09-07T05:32:30.891Z,23.17
2022-09-07T05:34:57.328Z,23.18
2022-09-07T05:37:24.091Z,23.18
2022-09-07T05:39:53.545Z,23.19
2022-09-07T05:42:19.956Z,23.18
2022-09-07T05:44:46.469Z,23.19
2022-09-07T05:47:13.564Z,23.18
2022-09-07T05:49:40.395Z,23.18
2022-09-07T05:52:07.013Z,23.18
2022-09-07T05:54:33.537Z,23.18
2022-09-07T05:56:59.935Z,23.18
2022-09-07T05:59:26.295Z,23.18
2022-09-07T06:01:52.755Z,23.18
2022-09-07T06:04:19.502Z,23.18
2022-09-07T06:06:59.248Z,23.18
2022-09-07T06:09:32.462Z,23.17
2022-09-07T06:11:58.967Z,23.18
2022-09-07T06:14:25.420Z,23.17
2022-09-07T06:16:51.877Z,23.18
2022-09-07T06:19:18.321Z,23.18
2022-09-07T06:21:44.703Z,23.17
2022-09-07T06:24:11.434Z,23.17
2022-09-07T06:26:37.791Z,23.18
2022-09-07T06:29:04.303Z,23.18
2022-09-07T06:31:30.803Z,23.17
2022-09-07T06:33:57.415Z,23.17
2022-09-07T06:36:27.226Z,23.17
2022-09-07T06:38:58.844Z,23.17
2022-09-07T06:44:14.735Z,23.19
2022-09-07T06:49:27.415Z,23.15
2022-09-07T06:51:53.823Z,23.10
2022-09-07T06:57:09.018Z,23.15
2022-09-07T06:59:36.590Z,23.17
2022-09-07T07:02:04.180Z,23.15
2022-09-07T07:04:30.819Z,23.12
2022-09-07T07:06:57.222Z,23.06
2022-09-07T07:09:23.566Z,23.02
2022-09-07T07:11:50.202Z,23.01
2022-09-07T07:14:19.107Z,22.99
2022-09-07T07:16:45.511Z,23.05
2022-09-07T07:19:12.027Z,23.01
2022-09-07T07:22:03.432Z,22.99
2022-09-07T07:24:24.793Z,22.95
2022-09-07T07:26:51.243Z,22.95
2022-09-07T07:29:18.821Z,22.97
2022-09-07T07:31:46.785Z,23.03
2022-09-07T07:34:50.284Z,23.08
2022-09-07T07:37:17.198Z,23.13
2022-09-07T07:42:30.563Z,23.17
2022-09-07T07:47:43.729Z,23.21
2022-09-07T07:55:43.574Z,23.25
2022-09-07T07:58:10.460Z,23.25
2022-09-07T08:00:53.078Z,23.26
2022-09-07T08:03:22.019Z,23.25
2022-09-07T08:05:48.328Z,23.28
2022-09-07T08:08:15.400Z,23.29
2022-09-07T08:10:41.849Z,23.29
2022-09-07T08:13:08.249Z,23.30
2022-09-07T08:15:44.481Z,23.30
2022-09-07T08:18:12.412Z,23.31
2022-09-07T08:20:40.353Z,23.31
2022-09-07T08:23:09.602Z,23.31
2022-09-07T08:25:35.962Z,23.31
2022-09-07T08:28:03.043Z,23.31
2022-09-07T08:30:29.644Z,23.32
2022-09-07T08:32:55.987Z,23.31
2022-09-07T08:35:22.364Z,23.33
2022-09-07T08:37:48.652Z,23.33
2022-09-07T08:40:19.508Z,23.33
2022-09-07T08:43:00.449Z,23.34
2022-09-07T08:45:39.740Z,23.35
2022-09-07T08:48:06.214Z,23.36
2022-09-07T08:50:39.451Z,23.37
2022-09-07T08:53:14.018Z,23.38
2022-09-07T08:55:50.630Z,23.38
2022-09-07T08:58:47.807Z,23.39
2022-09-07T09:04:17.207Z,23.40
2022-09-07T09:07:13.613Z,23.39
2022-09-07T09:10:07.550Z,23.40
2022-09-07T09:12:52.136Z,23.40
2022-09-07T09:15:33.913Z,23.42
2022-09-07T09:18:14.444Z,23.41
2022-09-07T09:20:53.446Z,23.41
2022-09-07T09:23:23.980Z,23.44
2022-09-07T09:25:58.666Z,23.42
2022-09-07T09:28:27.624Z,23.44
2022-09-07T09:30:56.650Z,23.43
2022-09-07T09:33:25.787Z,23.44
2022-09-07T09:35:54.598Z,23.47
2022-09-07T09:38:29.910Z,23.48
2022-09-07T09:40:59.946Z,23.47
2022-09-07T09:43:35.283Z,23.48
2022-09-07T09:46:17.953Z,23.48
2022-09-07T09:48:52.768Z,23.49
2022-09-07T09:54:19.068Z,23.47
2022-09-07T09:56:47.189Z,23.47
2022-09-07T10:05:36.081Z,23.49
2022-09-07T10:08:06.071Z,23.50
2022-09-07T10:10:32.514Z,23.48
2022-09-07T10:12:59.486Z,23.49
2022-09-07T10:15:39.702Z,23.49
2022-09-07T10:18:09.576Z,23.51
2022-09-07T10:20:37.810Z,23.50
2022-09-07T10:23:06.089Z,23.50
2022-09-07T10:25:40.865Z,23.51
2022-09-07T10:28:10.930Z,23.51
2022-09-07T10:31:03.617Z,23.51
2022-09-07T10:33:40.618Z,23.52
2022-09-07T10:36:15.895Z,23.52
2022-09-07T10:38:51.376Z,23.53
2022-09-07T10:41:23.895Z,23.53
2022-09-07T10:43:51.863Z,23.52
2022-09-07T10:49:25.252Z,23.53
2022-09-07T10:52:09.216Z,23.52
2022-09-07T10:54:43.815Z,23.52
2022-09-07T10:57:40.380Z,23.53
2022-09-07T11:00:20.807Z,23.56
2022-09-07T11:03:29.016Z,23.56
2022-09-07T11:06:21.803Z,23.58
2022-09-07T11:12:13.487Z,23.58
2022-09-07T11:15:15.756Z,23.57
2022-09-07T11:17:53.310Z,23.56
2022-09-07T11:20:55.147Z,23.56
2022-09-07T11:23:26.108Z,23.56
2022-09-07T11:26:19.705Z,23.56
2022-09-07T11:31:44.732Z,23.58
2022-09-07T11:34:30.110Z,23.57
2022-09-07T11:37:05.968Z,23.58
2022-09-07T11:39:53.440Z,23.60
2022-09-07T11:45:41.939Z,23.60
2022-09-07T11:48:50.882Z,23.60
2022-09-07T11:51:20.140Z,23.60
2022-09-07T11:53:53.228Z,23.58
2022-09-07T11:56:45.803Z,23.59
2022-09-07T11:59:53.432Z,23.60
2022-09-07T12:03:00.783Z,23.60
2022-09-07T12:05:48.749Z,23.62
2022-09-07T12:08:17.887Z,23.62
2022-09-07T12:11:05.211Z,23.62
2022-09-07T12:13:44.709Z,23.61
2022-09-07T12:16:41.780Z,23.61
2022-09-07T12:19:19.123Z,23.61
2022-09-07T12:21:51.185Z,23.62
2022-09-07T12:24:45.736Z,23.60
2022-09-07T12:27:20.927Z,23.61
2022-09-07T12:30:11.349Z,23.60
2022-09-07T12:32:54.825Z,23.61
2022-09-07T12:35:28.501Z,23.62
2022-09-07T12:37:56.371Z,23.63
2022-09-07T12:40:28.949Z,23.64
2022-09-07T12:43:13.572Z,23.64
2022-09-07T12:45:39.894Z,23.65
2022-09-07T12:48:21.423Z,23.66
2022-09-07T12:50:59.348Z,23.67
2022-09-07T12:53:57.708Z,23.68
2022-09-07T12:56:36.236Z,23.69
2022-09-07T12:59:21.673Z,23.72
2022-09-07T13:02:09.835Z,23.73
2022-09-07T13:05:14.437Z,23.74
2022-09-07T13:08:29.496Z,23.72
2022-09-07T13:10:56.149Z,23.73
2022-09-07T13:16:14.204Z,23.76
2022-09-07T13:18:43.597Z,23.76
2022-09-07T13:21:10.748Z,23.76
2022-09-07T13:23:51.241Z,23.76
2022-09-07T13:27:15.055Z,23.77
2022-09-07T13:29:41.636Z,23.77
2022-09-07T13:35:23.479Z,23.76
2022-09-07T13:37:56.119Z,23.76
2022-09-07T13:40:28.077Z,23.74
2022-09-07T13:42:56.871Z,23.75
2022-09-07T13:45:30.724Z,23.73
2022-09-07T13:48:14.529Z,23.73
2022-09-07T13:51:01.931Z,23.74
2022-09-07T13:53:42.731Z,23.74
2022-09-07T13:56:46.570Z,23.76
2022-09-07T13:59:35.971Z,23.77
2022-09-07T14:02:03.017Z,23.75
2022-09-07T14:04:37.087Z,23.77
2022-09-07T14:07:09.031Z,23.78
2022-09-07T14:09:35.336Z,23.78
2022-09-07T14:12:01.906Z,23.78
2022-09-07T14:14:30.909Z,23.78
2022-09-07T14:17:04.467Z,23.79
2022-09-07T14:19:45.174Z,23.78
2022-09-07T14:22:23.489Z,23.79
2022-09-07T14:24:51.175Z,23.79
2022-09-07T14:27:39.362Z,23.80
2022-09-07T14:30:14.856Z,23.78
2022-09-07T14:32:41.696Z,23.77
2022-09-07T14:35:13.633Z,23.76
2022-09-07T14:37:40.590Z,23.76
2022-09-07T14:40:15.020Z,23.75
2022-09-07T14:42:42.464Z,23.74
2022-09-07T14:45:23.983Z,23.74
2022-09-07T14:47:53.539Z,23.74
2022-09-07T14:50:22.955Z,23.75
2022-09-07T14:55:41.605Z,23.77
2022-09-07T14:58:22.866Z,23.79
2022-09-07T15:04:03.193Z,23.84
2022-09-07T15:09:30.611Z,23.86
2022-09-07T15:12:33.077Z,23.86
2022-09-07T15:15:22.015Z,23.90
2022-09-07T15:17:49.101Z,23.91
2022-09-07T15:20:35.010Z,23.91
2022-09-07T15:23:04.723Z,23.90
2022-09-07T15:25:32.268Z,23.92
2022-09-07T15:27:58.830Z,23.93
2022-09-07T15:30:26.060Z,23.94
2022-09-07T15:32:53.322Z,23.95
2022-09-07T15:35:19.748Z,23.96
2022-09-07T15:38:02.813Z,23.97
2022-09-07T15:40:56.376Z,23.97
2022-09-07T15:43:28.322Z,23.95
2022-09-07T15:45:55.020Z,23.94
2022-09-07T15:48:23.284Z,23.96
2022-09-07T15:50:51.742Z,23.97
2022-09-07T15:56:04.872Z,23.97
2022-09-07T15:58:31.415Z,23.98
2022-09-07T16:03:54.850Z,23.99
2022-09-07T16:06:22.301Z,24.01
2022-09-07T16:08:51.351Z,24.06
2022-09-07T16:11:23.955Z,24.08
2022-09-07T16:14:01.847Z,24.07
2022-09-07T16:19:20.581Z,24.02
2022-09-07T16:21:47.160Z,24.00
2022-09-07T16:24:13.529Z,23.97
2022-09-07T16:26:39.837Z,23.95
2022-09-07T16:29:06.182Z,23.95
2022-09-07T16:31:32.824Z,23.92
2022-09-07T16:34:01.677Z,23.92
2022-09-07T16:36:28.149Z,23.93
2022-09-07T16:38:56.672Z,23.94
2022-09-07T16:41:27.132Z,23.94
2022-09-07T16:43:54.736Z,23.93
2022-09-07T16:46:24.611Z,23.92
2022-09-07T16:48:51.753Z,23.91
2022-09-07T16:51:21.097Z,23.90
2022-09-07T16:53:49.155Z,23.88
2022-09-07T16:56:21.214Z,23.88
2022-09-07T16:58:50.982Z,23.88
2022-09-07T17:01:19.908Z,23.86
2022-09-07T17:03:49.222Z,23.85
2022-09-07T17:06:18.175Z,23.82
2022-09-07T17:08:44.925Z,23.81
2022-09-07T17:11:14.156Z,23.79
2022-09-07T17:13:41.710Z,23.78
2022-09-07T17:16:13.739Z,23.81
2022-09-07T17:21:30.352Z,23.86
2022-09-07T17:23:56.726Z,23.86
2022-09-07T17:26:26.655Z,23.88
2022-09-07T17:28:56.509Z,23.87
2022-09-07T17:34:15.616Z,23.88
2022-09-07T17:36:42.798Z,23.88
2022-09-07T17:39:18.552Z,23.88
2022-09-07T17:41:52.503Z,23.88
2022-09-07T17:44:19.284Z,23.87
2022-09-07T17:46:45.623Z,23.87
2022-09-07T17:49:14.206Z,23.88
2022-09-07T17:51:40.580Z,23.87
2022-09-07T17:54:11.449Z,23.87
2022-09-07T17:56:39.890Z,23.86
2022-09-07T18:01:56.030Z,23.88
2022-09-07T18:04:23.238Z,23.87
2022-09-07T18:06:50.145Z,23.87
2022-09-07T18:09:16.511Z,23.88
2022-09-07T18:11:45.950Z,23.87
2022-09-07T18:14:14.241Z,23.87
2022-09-07T18:16:40.717Z,23.88
2022-09-07T18:19:08.371Z,23.87
2022-09-07T18:21:36.379Z,23.86
2022-09-07T18:24:08.737Z,23.86
2022-09-07T18:26:40.126Z,23.86
2022-09-07T18:29:18.920Z,23.86
2022-09-07T18:31:54.409Z,23.84
2022-09-07T18:34:20.802Z,23.85
2022-09-07T18:36:47.615Z,23.87
2022-09-07T18:39:14.177Z,23.87
2022-09-07T18:41:41.190Z,23.88
2022-09-07T18:45:27.168Z,23.86
2022-09-07T18:46:54.313Z,23.86
2022-09-07T18:49:20.798Z,23.86
2022-09-07T18:54:33.408Z,23.87
2022-09-07T18:56:59.747Z,23.87
2022-09-07T18:59:26.082Z,23.87
2022-09-07T19:01:53.951Z,23.87
2022-09-07T19:04:21.152Z,23.87
2022-09-07T19:06:47.718Z,23.87
2022-09-07T19:09:14.061Z,23.86
2022-09-07T19:11:41.985Z,23.87
2022-09-07T19:14:08.463Z,23.86
2022-09-07T19:16:35.670Z,23.85
2022-09-07T19:19:05.578Z,23.85
2022-09-07T19:21:37.291Z,23.84
2022-09-07T19:24:10.733Z,23.82
2022-09-07T19:26:39.768Z,23.81
2022-09-07T19:29:15.367Z,23.80
2022-09-07T19:32:04.088Z,23.79
2022-09-07T19:34:32.225Z,23.79
2022-09-07T19:36:58.953Z,23.78
2022-09-07T19:39:25.313Z,23.77
2022-09-07T19:41:51.640Z,23.75
2022-09-07T19:44:17.949Z,23.75
2022-09-07T19:46:45.120Z,23.75
2022-09-07T19:49:12.225Z,23.74
2022-09-07T19:51:39.721Z,23.73
2022-09-07T19:54:06.690Z,23.73
2022-09-07T19:56:33.070Z,23.72
2022-09-07T19:58:59.396Z,23.72
2022-09-07T20:01:25.808Z,23.70
2022-09-07T20:04:00.771Z,23.70
2022-09-07T20:06:27.776Z,23.72
2022-09-07T20:08:54.784Z,23.72
2022-09-07T20:11:21.125Z,23.69
2022-09-07T20:13:47.429Z,23.71
2022-09-07T20:16:16.616Z,23.69
2022-09-07T20:18:43.956Z,23.70
2022-09-07T20:21:13.420Z,23.70
2022-09-07T20:23:40.630Z,23.70
2022-09-07T20:26:10.167Z,23.69
2022-09-07T20:28:37.751Z,23.69
2022-09-07T20:31:08.190Z,23.68
2022-09-07T20:33:35.222Z,23.68
2022-09-07T20:36:03.732Z,23.69
2022-09-07T20:38:30.196Z,23.68
2022-09-07T20:40:58.918Z,23.68
2022-09-07T20:43:25.827Z,23.68
2022-09-07T20:45:59.462Z,23.67
2022-09-07T20:48:26.799Z,23.67
2022-09-07T20:50:58.374Z,23.66
2022-09-07T20:53:25.374Z,23.67
2022-09-07T20:56:07.266Z,23.65
2022-09-07T20:58:35.304Z,23.67
2022-09-07T21:01:02.757Z,23.67
2022-09-07T21:03:29.481Z,23.65
2022-09-07T21:05:56.007Z,23.65
2022-09-07T21:08:22.342Z,23.66
2022-09-07T21:10:48.677Z,23.64
2022-09-07T21:13:16.216Z,23.65
2022-09-07T21:15:44.464Z,23.65
2022-09-07T21:18:15.886Z,23.65
2022-09-07T21:21:18.283Z,23.64
2022-09-07T21:23:41.849Z,23.64
2022-09-07T21:26:08.326Z,23.65
2022-09-07T21:28:34.653Z,23.64
2022-09-07T21:31:06.851Z,23.65
2022-09-07T21:33:35.656Z,23.65
2022-09-07T21:36:11.119Z,23.64
2022-09-07T21:38:39.367Z,23.64
2022-09-07T21:41:14.731Z,23.63
2022-09-07T21:43:41.857Z,23.62
2022-09-07T21:46:13.802Z,23.62
2022-09-07T21:48:40.504Z,23.62
2022-09-07T21:51:07.065Z,23.62
2022-09-07T21:53:34.525Z,23.61
2022-09-07T21:56:06.748Z,23.60
2022-09-07T21:58:33.267Z,23.60
2022-09-07T22:01:03.146Z,23.60
2022-09-07T22:03:29.569Z,23.60
2022-09-07T22:05:55.905Z,23.59
2022-09-07T22:08:22.263Z,23.59
2022-09-07T22:10:48.735Z,23.59
2022-09-07T22:13:15.048Z,23.58
2022-09-07T22:15:41.456Z,23.59
2022-09-07T22:18:11.907Z,23.58
2022-09-07T22:20:38.283Z,23.58
2022-09-07T22:23:05.267Z,23.57
2022-09-07T22:25:32.422Z,23.57
2022-09-07T22:27:58.766Z,23.57
2022-09-07T22:30:25.357Z,23.57
2022-09-07T22:32:52.027Z,23.56
2022-09-07T22:35:19.153Z,23.56
2022-09-07T22:37:45.747Z,23.55
2022-09-07T22:40:14.525Z,23.56
2022-09-07T22:42:41.345Z,23.55
2022-09-07T22:45:08.493Z,23.55
2022-09-07T22:47:34.799Z,23.55
2022-09-07T22:50:01.473Z,23.55
2022-09-07T22:52:27.835Z,23.55
2022-09-07T22:54:54.130Z,23.54
2022-09-07T22:57:20.445Z,23.54
2022-09-07T22:59:46.824Z,23.53
2022-09-07T23:02:13.121Z,23.53
2022-09-07T23:04:39.749Z,23.53
2022-09-07T23:07:07.558Z,23.53
2022-09-07T23:09:33.917Z,23.52
2022-09-07T23:12:00.246Z,23.52
2022-09-07T23:14:26.740Z,23.52
2022-09-07T23:16:53.088Z,23.52
2022-09-07T23:19:20.328Z,23.51
2022-09-07T23:21:46.948Z,23.51
2022-09-07T23:24:15.681Z,23.52
2022-09-07T23:26:42.899Z,23.52
2022-09-07T23:29:13.864Z,23.51
2022-09-07T23:31:41.003Z,23.51
2022-09-07T23:34:08.022Z,23.50
2022-09-07T23:36:34.585Z,23.51
2022-09-07T23:39:01.186Z,23.51
2022-09-07T23:41:28.739Z,23.50
2022-09-07T23:43:55.617Z,23.50
2022-09-07T23:46:22.546Z,23.50
2022-09-07T23:48:49.384Z,23.49
2022-09-07T23:51:20.115Z,23.49
2022-09-07T23:53:50.307Z,23.50
2022-09-07T23:56:16.627Z,23.47
2022-09-07T23:58:43.215Z,23.48
